Time;durP1;ratioP1;P1;durP2;ratioP2;P2;SDS_P1;SDS_P2;PMS_P1;PMS_P2;Temp;Humidity;BMP_temperature;BMP_pressure;BME280_temperature;BME280_humidity;BME280_pressure;Samples;Min_cycle;Max_cycle;Signal;HPM_P1;HPM_P2
2022/09/11 00:00:49;;;;;;;47.30;27.65;;;17.00;99.90;;;;;;5059061;28;20043;-90
2022/09/11 00:03:34;;;;;;;53.28;29.08;;;13.50;99.90;;;;;;5057411;28;20514;-90
2022/09/11 00:06:19;;;;;;;62.72;32.28;;;13.50;99.90;;;;;;5077768;28;20039;-89
2022/09/11 00:09:06;;;;;;;81.78;34.92;;;13.60;99.90;;;;;;5067964;28;20036;-90
2022/09/11 00:11:50;;;;;;;75.60;33.80;;;;;;;;;;5054002;28;20067;-91
2022/09/11 00:14:35;;;;;;;57.10;30.35;;;;;;;;;;5054257;28;20052;-90
2022/09/11 00:17:19;;;;;;;62.08;32.63;;;13.60;99.90;;;;;;5067247;28;20082;-90
2022/09/11 00:20:04;;;;;;;78.38;35.30;;;;;;;;;;5066751;28;20095;-90
2022/09/11 00:22:48;;;;;;;79.70;33.40;;;13.70;99.90;;;;;;5053809;28;20063;-90
2022/09/11 00:25:40;;;;;;;56.63;32.22;;;13.40;99.90;;;;;;5061397;28;20127;-90
2022/09/11 00:28:24;;;;;;;54.97;31.70;;;13.30;99.90;;;;;;5054155;28;20546;-89
2022/09/11 00:31:18;;;;;;;53.28;29.70;;;13.50;99.90;;;;;;5053468;28;20159;-90
2022/09/11 00:34:03;;;;;;;51.83;29.27;;;;;;;;;;5052636;28;20039;-89
2022/09/11 00:36:47;;;;;;;63.30;33.58;;;13.20;99.90;;;;;;5063775;28;20120;-90
2022/09/11 00:39:31;;;;;;;55.50;32.35;;;;;;;;;;5056393;28;20094;-89
2022/09/11 00:42:16;;;;;;;66.45;34.05;;;13.30;99.90;;;;;;5052162;28;20124;-90
2022/09/11 00:45:03;;;;;;;62.92;34.85;;;13.40;99.90;;;;;;5044897;28;20500;-90
2022/09/11 00:47:50;;;;;;;59.17;33.78;;;13.40;99.90;;;;;;5061126;28;20032;-90
2022/09/11 00:50:35;;;;;;;67.25;35.67;;;;;;;;;;5056841;28;20106;-89
2022/09/11 00:53:22;;;;;;;70.35;34.33;;;13.20;99.90;;;;;;5053257;28;20075;-89
2022/09/11 00:56:08;;;;;;;50.22;30.17;;;13.40;99.90;;;;;;5052991;28;20060;-89
2022/09/11 00:58:54;;;;;;;51.08;31.75;;;13.40;99.90;;;;;;5075430;28;20044;-90
2022/09/11 01:01:39;;;;;;;70.82;33.15;;;;;;;;;;5072339;28;20392;-89
2022/09/11 01:04:23;;;;;;;87.70;37.30;;;;;;;;;;5060074;28;20093;-89
2022/09/11 01:07:09;;;;;;;53.80;31.48;;;;;;;;;;5072978;28;21395;-90
2022/09/11 01:09:54;;;;;;;51.67;30.70;;;;;;;;;;5061669;28;20106;-90
2022/09/11 01:12:45;;;;;;;65.55;31.80;;;13.30;99.90;;;;;;5059053;28;20451;-90
2022/09/11 01:15:56;;;;;;;59.53;32.88;;;13.20;99.90;;;;;;5073134;28;20471;-90
2022/09/11 01:18:55;;;;;;;63.58;32.40;;;13.30;99.90;;;;;;5058410;28;20076;-89
2022/09/11 01:22:04;;;;;;;63.78;33.67;;;13.30;99.90;;;;;;5052932;28;20036;-89
2022/09/11 01:25:22;;;;;;;74.35;33.60;;;13.00;99.90;;;;;;5052054;28;20048;-89
2022/09/11 01:28:14;;;;;;;56.35;30.83;;;13.40;99.90;;;;;;5052655;28;20044;-89
2022/09/11 01:31:04;;;;;;;49.80;29.50;;;13.40;99.90;;;;;;5052819;28;20031;-89
2022/09/11 01:34:18;;;;;;;67.03;32.83;;;13.30;99.90;;;;;;5052915;28;20115;-90
2022/09/11 01:37:12;;;;;;;89.72;36.72;;;13.40;99.90;;;;;;5071389;28;20031;-91
2022/09/11 01:40:09;;;;;;;84.72;35.30;;;13.60;99.90;;;;;;5068181;28;20602;-89
2022/09/11 01:43:02;;;;;;;54.10;31.50;;;13.70;99.90;;;;;;5061761;28;20039;-91
2022/09/11 01:45:48;;;;;;;54.47;31.25;;;13.30;99.90;;;;;;5066755;28;20059;-90
2022/09/11 01:48:40;;;;;;;60.78;32.78;;;13.20;99.90;;;;;;5051844;28;20040;-90
2022/09/11 01:51:29;;;;;;;59.55;33.35;;;13.30;99.90;;;;;;5051312;28;20086;-89
2022/09/11 01:54:18;;;;;;;50.15;30.48;;;13.20;99.90;;;;;;5065325;28;20047;-91
2022/09/11 01:57:20;;;;;;;47.42;28.42;;;13.10;99.90;;;;;;5052709;28;20071;-91
2022/09/11 02:00:11;;;;;;;57.13;30.60;;;13.20;99.90;;;;;;5057422;28;20460;-92
2022/09/11 02:03:02;;;;;;;41.67;26.98;;;13.20;99.90;;;;;;5057219;28;20059;-91
2022/09/11 02:05:58;;;;;;;55.05;28.90;;;13.10;99.90;;;;;;5062699;28;20043;-94
2022/09/11 02:08:47;;;;;;;74.68;32.63;;;13.10;99.90;;;;;;5053085;28;20175;-94
2022/09/11 02:11:39;;;;;;;43.40;27.92;;;13.10;99.90;;;;;;5055919;28;20036;-94
2022/09/11 02:14:38;;;;;;;61.72;31.90;;;13.10;99.90;;;;;;5075502;28;20067;-93
2022/09/11 02:17:35;;;;;;;48.72;28.50;;;13.00;99.90;;;;;;5061079;28;20046;-95
2022/09/11 02:20:19;;;;;;;47.30;28.63;;;;;;;;;;5072626;28;20487;-94
2022/09/11 02:23:05;;;;;;;56.72;28.83;;;13.00;99.90;;;;;;5073331;28;20439;-94
2022/09/11 02:25:52;;;;;;;60.13;31.05;;;;;;;;;;5064635;28;20638;-94
2022/09/11 02:28:37;;;;;;;50.10;29.63;;;;;;;;;;5064658;28;20591;-89
2022/09/11 02:31:22;;;;;;;51.88;29.75;;;13.00;99.90;;;;;;5065704;28;20484;-89
2022/09/11 02:34:09;;;;;;;52.85;30.60;;;13.00;99.90;;;;;;5064607;28;20544;-89
2022/09/11 02:37:15;;;;;;;47.65;28.90;;;13.10;99.90;;;;;;5056099;28;20040;-91
2022/09/11 02:40:40;;;;;;;54.88;29.67;;;13.10;99.90;;;;;;5056213;28;20047;-91
2022/09/11 02:43:24;;;;;;;85.40;32.67;;;;;;;;;;5057127;28;20044;-92
2022/09/11 02:46:42;;;;;;;52.17;28.42;;;13.10;99.90;;;;;;5069837;28;20113;-87
2022/09/11 02:49:50;;;;;;;43.22;25.73;;;13.10;99.90;;;;;;5055596;28;20035;-90
2022/09/11 02:52:35;;;;;;;48.55;26.05;;;;;;;;;;5068674;28;20170;-89
2022/09/11 02:55:40;;;;;;;36.22;24.13;;;12.90;99.90;;;;;;5064574;28;20090;-88
2022/09/11 02:58:31;;;;;;;32.45;21.13;;;12.80;99.90;;;;;;5061689;28;20078;-89
2022/09/11 03:01:17;;;;;;;71.20;19.95;;;;;;;;;;5075455;28;20032;-91
2022/09/11 03:04:02;;;;;;;25.67;15.50;;;;;;;;;;5078836;28;20531;-92
2022/09/11 03:06:48;;;;;;;28.42;18.33;;;12.80;99.90;;;;;;5079033;28;20070;-95
2022/09/11 03:09:33;;;;;;;29.92;19.20;;;;;;;;;;5062943;28;20154;-94
2022/09/11 03:12:19;;;;;;;28.30;17.88;;;;;;;;;;5077804;28;20511;-94
2022/09/11 03:15:04;;;;;;;34.33;22.55;;;;;;;;;;5064244;28;20082;-93
2022/09/11 03:17:49;;;;;;;42.38;24.48;;;;;;;;;;5075468;28;20456;-91
2022/09/11 03:20:33;;;;;;;47.15;24.83;;;;;;;;;;5074424;28;20089;-91
2022/09/11 03:23:18;;;;;;;36.80;21.50;;;;;;;;;;5074798;28;20067;-94
2022/09/11 03:26:03;;;;;;;34.40;20.55;;;;;;;;;;5064034;28;20087;-91
2022/09/11 03:28:49;;;;;;;33.00;20.45;;;;;;;;;;5075572;28;20040;-95
2022/09/11 03:31:34;;;;;;;34.03;22.08;;;;;;;;;;5073583;28;20384;-94
2022/09/11 03:34:19;;;;;;;38.08;21.17;;;;;;;;;;5055627;28;20113;-91
2022/09/11 03:37:03;;;;;;;40.63;23.67;;;;;;;;;;5070171;28;20442;-91
2022/09/11 03:39:48;;;;;;;42.78;25.05;;;;;;;;;;5074065;28;20059;-92
2022/09/11 03:42:32;;;;;;;44.63;25.42;;;;;;;;;;5074108;28;20043;-91
2022/09/11 03:45:17;;;;;;;38.35;24.10;;;;;;;;;;5074821;28;20039;-93
2022/09/11 03:48:02;;;;;;;37.17;22.65;;;;;;;;;;5073945;28;20071;-93
2022/09/11 03:50:47;;;;;;;35.05;22.48;;;;;;;;;;5074718;28;20039;-93
2022/09/11 03:53:32;;;;;;;68.00;28.45;;;;;;;;;;5061152;28;20125;-95
2022/09/11 03:56:16;;;;;;;37.03;23.83;;;;;;;;;;5080638;28;20035;-95
2022/09/11 03:59:01;;;;;;;59.10;26.00;;;;;;;;;;5069821;28;20048;-92
2022/09/11 04:01:48;;;;;;;43.20;25.67;;;;;;;;;;5060903;28;20070;-93
2022/09/11 04:04:33;;;;;;;36.58;23.77;;;;;;;;;;5058949;28;20448;-95
2022/09/11 04:07:17;;;;;;;38.92;24.02;;;;;;;;;;5086134;28;20062;-95
2022/09/11 04:10:02;;;;;;;61.67;26.27;;;;;;;;;;5087881;28;20044;-95
2022/09/11 04:12:47;;;;;;;41.03;25.60;;;;;;;;;;5085671;28;20039;-91
2022/09/11 04:15:32;;;;;;;40.17;24.67;;;;;;;;;;5063956;28;20058;-92
2022/09/11 04:18:19;;;;;;;39.70;25.02;;;;;;;;;;5071514;28;20067;-95
2022/09/11 04:21:09;;;;;;;43.38;25.05;;;12.80;99.90;;;;;;5082882;28;20059;-94
2022/09/11 04:23:59;;;;;;;40.90;25.25;;;;;;;;;;5062700;28;20040;-95
2022/09/11 04:26:44;;;;;;;38.40;24.35;;;;;;;;;;5076065;28;20851;-92
2022/09/11 04:29:28;;;;;;;37.67;24.35;;;;;;;;;;5073490;28;20503;-91
2022/09/11 04:32:16;;;;;;;35.58;23.77;;;12.90;99.90;;;;;;5073725;28;20040;-95
2022/09/11 04:35:01;;;;;;;39.45;24.52;;;;;;;;;;5056573;28;20486;-89
2022/09/11 04:37:45;;;;;;;37.08;24.23;;;;;;;;;;5063076;28;20622;-92
2022/09/11 04:40:32;;;;;;;40.63;24.33;;;12.90;99.90;;;;;;5072325;28;20035;-92
2022/09/11 04:43:17;;;;;;;43.03;23.98;;;;;;;;;;5072544;28;20087;-91
2022/09/11 04:46:03;;;;;;;37.25;23.92;;;13.00;99.90;;;;;;5059414;28;20080;-95
2022/09/11 04:48:50;;;;;;;36.58;23.20;;;;;;;;;;5087386;28;20051;-95
2022/09/11 04:51:35;;;;;;;53.05;25.38;;;13.10;99.90;;;;;;5085996;28;20051;-96
2022/09/11 04:54:20;;;;;;;41.17;23.55;;;;;;;;;;5080646;28;20071;-96
2022/09/11 04:57:05;;;;;;;33.65;21.73;;;;;;;;;;5083058;28;20035;-95
2022/09/11 04:59:52;;;;;;;45.72;24.45;;;;;;;;;;5084279;28;20058;-94
2022/09/11 05:02:39;;;;;;;31.98;21.08;;;;;;;;;;5080707;28;20151;-95
2022/09/11 05:05:24;;;;;;;39.53;23.13;;;;;;;;;;5078214;28;20459;-95
2022/09/11 05:08:10;;;;;;;32.80;21.27;;;;;;;;;;5066338;28;20055;-92
2022/09/11 05:10:55;;;;;;;44.83;25.50;;;;;;;;;;5074985;28;20059;-95
2022/09/11 05:13:40;;;;;;;34.80;24.15;;;13.30;99.90;;;;;;5068716;28;20094;-95
2022/09/11 05:16:27;;;;;;;39.50;24.70;;;13.40;99.90;;;;;;5088194;28;20107;-94
2022/09/11 05:19:12;;;;;;;43.42;25.50;;;;;;;;;;5087975;28;20044;-95
2022/09/11 05:22:03;;;;;;;36.00;22.55;;;13.50;99.90;;;;;;5062434;28;20065;-95
2022/09/11 05:24:57;;;;;;;33.97;22.45;;;13.50;99.90;;;;;;5082783;28;20066;-94
2022/09/11 05:27:41;;;;;;;30.35;20.73;;;14.50;99.90;;;;;;5087934;28;20079;-95
2022/09/11 05:30:29;;;;;;;30.35;20.35;;;13.60;99.90;;;;;;5073004;28;20058;-95
2022/09/11 05:33:21;;;;;;;28.38;20.17;;;13.60;99.90;;;;;;5089125;28;20047;-95
2022/09/11 05:36:06;;;;;;;26.88;19.67;;;13.70;99.90;;;;;;5079005;28;20043;-92
2022/09/11 05:38:51;;;;;;;29.00;20.30;;;;;;;;;;5072393;28;20126;-94
2022/09/11 05:41:36;;;;;;;30.98;21.65;;;;;;;;;;5071747;28;20036;-91
2022/09/11 05:44:20;;;;;;;23.30;17.60;;;;;;;;;;5055421;28;20094;-93
2022/09/11 05:47:05;;;;;;;33.10;20.45;;;;;;;;;;5053143;28;20040;-93
2022/09/11 05:49:50;;;;;;;25.13;18.13;;;;;;;;;;5058652;28;20098;-92
2022/09/11 05:52:35;;;;;;;21.90;17.42;;;;;;;;;;5075048;28;20090;-95
2022/09/11 05:55:19;;;;;;;33.85;21.30;;;;;;;;;;5059059;28;20435;-95
2022/09/11 05:58:06;;;;;;;25.00;18.80;;;;;;;;;;5072806;28;20082;-95
2022/09/11 06:00:51;;;;;;;34.03;21.05;;;;;;;;;;5065322;28;20040;-93
2022/09/11 06:03:38;;;;;;;24.10;19.67;;;13.70;99.90;;;;;;5061585;28;20404;-93
2022/09/11 06:06:24;;;;;;;29.70;20.90;;;13.80;99.90;;;;;;5072632;28;20051;-93
2022/09/11 06:09:08;;;;;;;37.67;23.85;;;;;;;;;;5073041;28;20090;-94
2022/09/11 06:11:53;;;;;;;36.42;23.27;;;;;;;;;;5058748;28;20067;-93
2022/09/11 06:14:38;;;;;;;28.85;20.13;;;14.00;99.90;;;;;;5072210;28;20066;-89
2022/09/11 06:17:23;;;;;;;30.08;20.02;;;;;;;;;;5072672;28;20554;-90
2022/09/11 06:20:08;;;;;;;31.08;20.33;;;14.20;99.90;;;;;;5071271;28;20050;-93
2022/09/11 06:22:55;;;;;;;25.58;19.65;;;;;;;;;;5065708;28;20062;-93
2022/09/11 06:25:40;;;;;;;27.55;20.90;;;;;;;;;;5049120;28;20120;-93
2022/09/11 06:28:25;;;;;;;30.25;20.92;;;;;;;;;;5070288;28;20692;-94
2022/09/11 06:31:12;;;;;;;26.58;20.38;;;14.20;99.90;;;;;;5064390;28;20535;-91
2022/09/11 06:33:56;;;;;;;27.98;19.83;;;;;;;;;;5062620;28;20043;-88
2022/09/11 06:36:42;;;;;;;26.48;19.95;;;;;;;;;;5082907;28;20079;-94
2022/09/11 06:39:29;;;;;;;26.90;19.52;;;14.70;99.90;;;;;;5094981;28;20032;-95
2022/09/11 06:42:13;;;;;;;24.48;18.17;;;;;;;;;;5044998;28;20098;-93
2022/09/11 06:44:58;;;;;;;21.65;17.13;;;;;;;;;;5060888;28;20040;-93
2022/09/11 06:47:43;;;;;;;22.63;17.48;;;;;;;;;;5051135;28;20132;-92
2022/09/11 06:50:28;;;;;;;20.60;18.08;;;14.90;99.90;;;;;;5068965;28;20416;-94
2022/09/11 06:53:14;;;;;;;25.08;17.38;;;15.20;99.90;;;;;;5067008;28;20052;-94
2022/09/11 06:56:05;;;;;;;21.80;17.83;;;15.20;99.90;;;;;;5062323;28;20558;-92
2022/09/11 06:58:50;;;;;;;20.60;16.08;;;;;;;;;;5057219;28;20235;-91
2022/09/11 07:01:35;;;;;;;20.75;17.00;;;15.60;99.90;;;;;;5058331;28;20052;-94
2022/09/11 07:04:19;;;;;;;20.55;17.15;;;;;;;;;;5080950;28;20064;-93
2022/09/11 07:07:04;;;;;;;18.92;16.15;;;15.60;99.90;;;;;;5096872;28;20068;-91
2022/09/11 07:09:53;;;;;;;20.58;16.50;;;15.90;99.90;;;;;;5073888;28;20089;-95
2022/09/11 07:12:38;;;;;;;20.55;16.25;;;;;;;;;;5052123;28;20082;-94
2022/09/11 07:15:23;;;;;;;20.92;15.48;;;;;;;;;;5074756;28;20534;-94
2022/09/11 07:18:10;;;;;;;18.17;14.45;;;;;;;;;;5076094;28;20116;-93
2022/09/11 07:20:55;;;;;;;15.32;13.65;;;;;;;;;;5075445;28;20115;-93
2022/09/11 07:23:40;;;;;;;14.25;12.75;;;20.30;99.90;;;;;;5076236;28;20135;-93
2022/09/11 07:26:27;;;;;;;14.45;12.20;;;21.20;99.90;;;;;;5077973;28;20119;-94
2022/09/11 07:29:12;;;;;;;13.70;11.90;;;;;;;;;;5181363;22;20060;-88
2022/09/11 07:31:57;;;;;;;12.80;11.13;;;;;;;;;;5034327;28;20068;-89
2022/09/11 07:34:42;;;;;;;13.95;11.20;;;;;;;;;;5026576;28;20523;-92
2022/09/11 07:37:26;;;;;;;13.15;10.13;;;;;;;;;;5029472;28;20064;-93
2022/09/11 07:40:13;;;;;;;12.20;9.40;;;;;;;;;;5030196;28;20068;-90
2022/09/11 07:42:58;;;;;;;11.35;10.00;;;;;;;;;;5118274;22;21500;-91
2022/09/11 07:45:43;;;;;;;11.80;9.18;;;25.50;99.90;;;;;;4995109;28;20060;-91
2022/09/11 07:48:29;;;;;;;10.93;8.98;;;25.60;99.90;;;;;;4970874;28;20544;-89
2022/09/11 07:51:15;;;;;;;10.27;8.90;;;25.20;99.90;;;;;;4980884;28;20041;-91
2022/09/11 07:54:00;;;;;;;10.25;8.35;;;23.50;99.90;;;;;;4994423;28;20106;-93
2022/09/11 07:56:45;;;;;;;9.80;8.80;;;;;;;;;;4995395;28;20137;-87
2022/09/11 07:59:29;;;;;;;9.43;8.18;;;23.30;99.90;;;;;;4998194;28;21381;-92
2022/09/11 08:02:14;;;;;;;8.77;6.57;;;;;;;;;;5010544;28;20154;-93
2022/09/11 08:05:00;;;;;;;8.50;6.68;;;23.20;99.90;;;;;;5007506;28;20561;-92
2022/09/11 08:07:44;;;;;;;8.52;6.97;;;22.70;99.90;;;;;;4986795;28;20039;-92
2022/09/11 08:10:29;;;;;;;7.57;6.57;;;23.00;99.90;;;;;;4970212;28;20164;-93
2022/09/11 08:13:16;;;;;;;9.82;6.00;;;;;;;;;;4996538;28;20054;-92
2022/09/11 08:16:00;;;;;;;6.93;6.10;;;23.80;99.90;;;;;;4999000;28;20041;-91
2022/09/11 08:18:48;;;;;;;11.20;6.60;;;23.80;99.90;;;;;;5000108;28;20521;-92
2022/09/11 08:21:33;;;;;;;7.03;4.55;;;23.90;99.90;;;;;;5004022;28;20112;-92
2022/09/11 08:24:19;;;;;;;6.68;4.97;;;23.70;99.90;;;;;;4994622;28;20124;-91
2022/09/11 08:27:06;;;;;;;5.90;4.53;;;22.90;99.90;;;;;;4993837;28;20120;-91
2022/09/11 08:29:52;;;;;;;7.53;4.57;;;22.40;99.90;;;;;;4995215;28;20069;-92
2022/09/11 08:32:38;;;;;;;9.80;3.53;;;22.70;99.90;;;;;;4993970;28;20037;-93
2022/09/11 08:35:23;;;;;;;7.60;3.60;;;21.50;99.90;;;;;;4980449;28;20041;-92
2022/09/11 08:38:08;;;;;;;7.00;3.95;;;22.70;99.90;;;;;;4993401;28;20033;-91
2022/09/11 08:40:53;;;;;;;7.97;4.50;;;22.40;99.90;;;;;;5007655;28;20045;-91
2022/09/11 08:43:46;;;;;;;7.80;3.40;;;22.40;99.90;;;;;;5003974;28;20108;-91
2022/09/11 08:46:35;;;;;;;5.20;2.60;;;23.00;99.90;;;;;;4989492;28;20041;-92
2022/09/11 08:49:40;;;;;;;6.18;2.70;;;22.70;99.90;;;;;;5013882;28;20033;-92
2022/09/11 08:52:24;;;;;;;5.85;2.80;;;23.40;99.90;;;;;;5013223;28;20041;-91
2022/09/11 08:55:16;;;;;;;5.30;2.63;;;23.70;99.90;;;;;;4998927;28;20437;-91
2022/09/11 08:58:43;;;;;;;4.60;2.50;;;23.00;99.90;;;;;;5012643;28;20036;-93
2022/09/11 09:01:57;;;;;;;6.10;2.13;;;22.40;99.90;;;;;;5012831;28;20425;-92
2022/09/11 09:05:04;;;;;;;6.15;2.70;;;22.60;99.90;;;;;;5007828;28;20057;-91
2022/09/11 09:08:40;;;;;;;4.47;2.55;;;22.00;99.90;;;;;;5013743;28;20092;-92
2022/09/11 09:11:39;;;;;;;4.70;2.00;;;22.30;99.90;;;;;;5013493;28;20041;-91
2022/09/11 09:14:45;;;;;;;6.55;2.58;;;22.70;99.90;;;;;;4999580;28;20049;-91
2022/09/11 09:17:45;;;;;;;4.55;1.80;;;22.70;99.90;;;;;;5017817;28;20128;-93
2022/09/11 09:20:42;;;;;;;5.07;2.42;;;22.40;99.90;;;;;;5013863;28;20052;-92
2022/09/11 09:23:43;;;;;;;6.07;2.28;;;22.20;99.90;;;;;;5013082;28;20180;-94
2022/09/11 09:26:38;;;;;;;5.15;2.63;;;21.70;99.90;;;;;;5012756;28;20044;-92
2022/09/11 09:29:28;;;;;;;5.55;2.55;;;21.50;99.90;;;;;;5012407;28;20080;-92
2022/09/11 09:32:19;;;;;;;5.75;2.65;;;21.30;99.90;;;;;;4985145;28;20117;-92
2022/09/11 09:35:14;;;;;;;5.38;2.10;;;21.10;99.90;;;;;;5012293;28;20125;-94
2022/09/11 09:38:02;;;;;;;4.20;2.05;;;20.90;99.90;;;;;;5012732;28;20136;-92
2022/09/11 09:40:58;;;;;;;6.70;2.05;;;21.30;99.90;;;;;;4987457;28;20037;-92
2022/09/11 09:43:52;;;;;;;3.80;2.00;;;21.00;99.90;;;;;;5013023;28;20072;-92
2022/09/11 09:46:52;;;;;;;5.05;1.80;;;21.70;99.90;;;;;;4991507;28;20044;-92
2022/09/11 09:49:36;;;;;;;4.50;1.80;;;22.50;99.90;;;;;;5012047;28;20110;-94
2022/09/11 09:52:34;;;;;;;3.78;1.55;;;23.00;99.90;;;;;;4998069;28;20044;-91
2022/09/11 09:55:20;;;;;;;4.93;1.80;;;;;;;;;;4996799;28;20072;-90
2022/09/11 09:58:06;;;;;;;4.55;1.90;;;;;;;;;;4998824;28;20057;-92
2022/09/11 10:00:50;;;;;;;2.83;1.40;;;23.70;99.90;;;;;;5012206;28;20072;-93
2022/09/11 10:03:35;;;;;;;3.58;1.67;;;;;;;;;;4992321;28;20073;-94
2022/09/11 10:06:22;;;;;;;4.78;1.80;;;24.20;99.90;;;;;;4992467;28;20089;-92
2022/09/11 10:09:22;;;;;;;3.85;1.50;;;24.00;99.90;;;;;;4980967;28;20033;-92
2022/09/11 10:12:15;;;;;;;5.03;1.65;;;23.20;99.90;;;;;;4992349;28;20033;-92
2022/09/11 10:15:01;;;;;;;5.70;1.60;;;24.00;99.90;;;;;;4993456;28;20096;-92
2022/09/11 10:17:46;;;;;;;3.30;1.33;;;;;;;;;;4993357;28;20096;-92
2022/09/11 10:20:31;;;;;;;10.32;1.50;;;23.80;99.90;;;;;;4992952;28;20084;-92
2022/09/11 10:23:26;;;;;;;3.58;1.50;;;23.50;99.90;;;;;;4992017;28;20450;-91
2022/09/11 10:26:27;;;;;;;4.80;1.40;;;22.80;99.90;;;;;;4992840;28;20036;-92
2022/09/11 10:29:20;;;;;;;1.80;0.90;;;23.20;99.90;;;;;;4991755;28;20033;-93
2022/09/11 10:32:05;;;;;;;3.13;1.10;;;;;;;;;;4993297;28;20042;-92
2022/09/11 10:34:50;;;;;;;3.13;1.05;;;23.00;99.90;;;;;;5003582;28;20399;-92
2022/09/11 10:37:35;;;;;;;4.85;1.35;;;;;;;;;;4991925;28;20053;-92
2022/09/11 10:40:21;;;;;;;2.90;1.20;;;23.70;99.90;;;;;;4992066;28;20073;-92
2022/09/11 10:43:24;;;;;;;3.58;0.90;;;23.80;99.60;;;;;;4980102;28;20048;-93
2022/09/11 10:46:26;;;;;;;5.47;1.30;;;23.80;99.90;;;;;;5013217;28;20040;-93
2022/09/11 10:49:21;;;;;;;3.88;1.10;;;23.50;99.90;;;;;;5015233;28;20496;-92
2022/09/11 10:52:09;;;;;;;3.38;1.48;;;23.30;99.90;;;;;;5016585;28;20091;-93
2022/09/11 10:54:58;;;;;;;3.40;1.60;;;23.00;99.90;;;;;;5002436;28;20441;-91
2022/09/11 10:57:47;;;;;;;3.72;1.38;;;22.80;99.90;;;;;;5015167;28;20433;-93
2022/09/11 11:00:34;;;;;;;3.05;1.40;;;22.30;99.90;;;;;;5016264;28;20080;-93
2022/09/11 11:03:23;;;;;;;5.18;1.40;;;22.10;99.90;;;;;;5001582;28;20059;-92
2022/09/11 11:06:07;;;;;;;3.00;1.50;;;;;;;;;;5001349;28;20505;-93
2022/09/11 11:09:22;;;;;;;3.25;1.30;;;21.30;99.90;;;;;;5015286;28;20397;-92
2022/09/11 11:12:48;;;;;;;3.10;1.48;;;21.50;99.90;;;;;;4993671;28;20041;-91
2022/09/11 11:15:51;;;;;;;2.97;1.60;;;21.30;99.90;;;;;;5015769;28;20084;-93
2022/09/11 11:18:50;;;;;;;6.65;1.60;;;21.10;99.90;;;;;;5015729;28;20049;-93
2022/09/11 11:21:48;;;;;;;2.90;1.70;;;20.90;99.90;;;;;;5014459;28;20063;-93
2022/09/11 11:24:38;;;;;;;2.88;1.77;;;20.90;99.90;;;;;;5015607;28;20076;-93
2022/09/11 11:27:29;;;;;;;3.80;1.58;;;20.80;99.90;;;;;;4992829;28;20049;-94
2022/09/11 11:30:19;;;;;;;5.38;2.38;;;20.90;99.90;;;;;;5017855;28;20041;-91
2022/09/11 11:33:36;;;;;;;8.20;1.92;;;20.80;99.90;;;;;;5013302;28;20041;-95
2022/09/11 11:36:42;;;;;;;4.50;1.90;;;20.60;99.90;;;;;;5002946;28;20045;-94
2022/09/11 11:39:35;;;;;;;4.82;2.30;;;20.70;99.90;;;;;;4998918;28;20041;-90
2022/09/11 11:42:28;;;;;;;5.97;2.58;;;20.80;99.90;;;;;;5014994;28;20088;-93
2022/09/11 11:45:33;;;;;;;3.95;2.60;;;20.70;99.90;;;;;;5014697;28;20060;-90
2022/09/11 11:48:40;;;;;;;4.57;2.80;;;20.60;99.90;;;;;;4992366;28;20536;-92
2022/09/11 11:51:33;;;;;;;6.75;2.53;;;21.10;99.90;;;;;;4982009;28;20441;-92
2022/09/11 11:54:34;;;;;;;6.30;2.85;;;20.80;99.90;;;;;;5018801;28;20045;-96
2022/09/11 11:57:22;;;;;;;6.30;3.80;;;20.90;99.90;;;;;;5108254;22;20069;-95
2022/09/11 12:00:13;;;;;;;7.75;2.53;;;21.10;99.90;;;;;;5018331;28;20060;-93
2022/09/11 12:03:11;;;;;;;8.38;3.10;;;21.10;99.90;;;;;;5014899;28;20121;-92
2022/09/11 12:05:59;;;;;;;6.65;2.53;;;21.20;99.90;;;;;;5019789;28;20077;-93
2022/09/11 12:08:44;;;;;;;4.88;2.50;;;21.80;99.90;;;;;;5016902;28;20045;-95
2022/09/11 12:11:31;;;;;;;6.25;2.45;;;22.00;99.90;;;;;;5013680;28;20169;-92
2022/09/11 12:14:32;;;;;;;3.92;2.10;;;22.00;99.90;;;;;;5017845;28;20037;-96
2022/09/11 12:17:16;;;;;;;5.88;2.05;;;22.50;99.90;;;;;;5019842;28;20041;-95
2022/09/11 12:20:34;;;;;;;4.95;1.90;;;23.00;99.90;;;;;;5020006;28;20166;-96
2022/09/11 12:23:48;;;;;;;4.15;1.67;;;22.50;99.90;;;;;;5025219;28;20068;-93
2022/09/11 12:26:32;;;;;;;4.50;1.60;;;22.40;99.90;;;;;;5012541;28;20049;-94
2022/09/11 12:29:52;;;;;;;5.03;1.70;;;22.50;99.90;;;;;;5020835;28;20076;-94
2022/09/11 12:32:44;;;;;;;3.90;1.65;;;22.90;99.90;;;;;;5027612;28;20032;-95
2022/09/11 12:35:48;;;;;;;7.63;2.13;;;23.40;99.90;;;;;;5021311;28;20540;-88
2022/09/11 12:38:44;;;;;;;4.10;2.42;;;23.90;99.90;;;;;;5023751;28;20041;-95
2022/09/11 12:41:33;;;;;;;6.38;1.65;;;23.90;99.90;;;;;;5018597;28;20056;-91
2022/09/11 12:44:30;;;;;;;3.60;1.80;;;23.90;99.90;;;;;;5014410;28;20049;-94
2022/09/11 12:47:22;;;;;;;5.07;1.95;;;23.70;99.90;;;;;;5014399;28;20072;-92
2022/09/11 12:50:18;;;;;;;5.38;2.08;;;23.20;99.90;;;;;;5017266;28;20048;-94
2022/09/11 12:53:04;;;;;;;2.72;1.50;;;22.90;99.90;;;;;;5014847;28;20044;-94
2022/09/11 12:55:59;;;;;;;7.95;1.60;;;22.60;99.90;;;;;;5013433;28;20037;-91
2022/09/11 12:58:46;;;;;;;5.32;1.80;;;22.50;99.90;;;;;;5012885;28;20065;-95
2022/09/11 13:01:49;;;;;;;3.58;1.48;;;22.30;99.90;;;;;;5014918;28;20064;-91
2022/09/11 13:04:34;;;;;;;3.22;1.48;;;;;;;;;;5014292;28;20540;-93
2022/09/11 13:07:33;;;;;;;5.95;2.30;;;22.30;99.90;;;;;;5012749;28;20033;-93
2022/09/11 13:10:34;;;;;;;4.55;1.60;;;22.20;99.90;;;;;;5011971;28;20029;-94
2022/09/11 13:13:34;;;;;;;2.75;1.50;;;22.20;99.90;;;;;;5012576;28;20037;-90
2022/09/11 13:16:23;;;;;;;3.38;1.90;;;22.40;99.90;;;;;;5013827;28;20036;-91
2022/09/11 13:19:12;;;;;;;3.15;1.90;;;22.80;99.90;;;;;;5002790;28;20117;-93
2022/09/11 13:21:57;;;;;;;4.72;2.28;;;;;;;;;;5011562;28;20045;-89
2022/09/11 13:24:41;;;;;;;5.10;2.10;;;23.00;99.90;;;;;;5011464;28;20056;-89
2022/09/11 13:27:27;;;;;;;3.58;1.83;;;23.20;99.90;;;;;;5011913;28;20121;-89
2022/09/11 13:30:14;;;;;;;4.82;1.77;;;23.40;99.90;;;;;;5013322;28;20096;-93
2022/09/11 13:33:07;;;;;;;6.65;1.90;;;23.70;99.90;;;;;;5012745;28;20041;-94
2022/09/11 13:35:53;;;;;;;5.10;1.95;;;;;;;;;;5010542;28;20091;-90
2022/09/11 13:38:38;;;;;;;5.90;2.03;;;;;;;;;;5011769;28;20060;-91
2022/09/11 13:41:27;;;;;;;5.20;1.90;;;23.40;99.90;;;;;;5011987;28;20052;-92
2022/09/11 13:44:50;;;;;;;5.03;1.83;;;23.20;99.90;;;;;;5013135;28;20438;-91
2022/09/11 13:47:39;;;;;;;4.78;2.08;;;23.00;99.90;;;;;;5012238;28;20065;-91
2022/09/11 13:50:24;;;;;;;4.95;2.13;;;;;;;;;;5011091;28;20033;-90
2022/09/11 13:53:09;;;;;;;5.03;1.80;;;;;;;;;;5009691;28;20101;-90
2022/09/11 13:55:54;;;;;;;7.18;2.08;;;;;;;;;;5012092;28;20540;-94
2022/09/11 13:58:38;;;;;;;4.18;2.00;;;;;;;;;;5013796;28;20497;-91
2022/09/11 14:01:23;;;;;;;6.32;2.00;;;;;;;;;;5011975;28;20029;-89
2022/09/11 14:04:10;;;;;;;6.88;1.60;;;23.30;99.90;;;;;;5009386;28;20556;-89
2022/09/11 14:06:54;;;;;;;3.38;1.55;;;23.30;99.90;;;;;;5000676;28;20041;-89
2022/09/11 14:09:39;;;;;;;4.45;1.80;;;;;;;;;;5006594;28;20119;-87
2022/09/11 14:12:24;;;;;;;4.75;2.00;;;;;;;;;;5013605;28;20032;-88
2022/09/11 14:15:34;;;;;;;4.65;1.65;;;23.40;99.90;;;;;;5010762;28;20064;-90
2022/09/11 14:18:32;;;;;;;4.38;1.60;;;23.40;99.90;;;;;;5028788;28;20062;-92
2022/09/11 14:21:19;;;;;;;2.80;1.52;;;23.30;99.90;;;;;;5015459;28;20386;-89
2022/09/11 14:24:20;;;;;;;4.25;1.83;;;23.70;99.90;;;;;;5016286;28;20100;-88
2022/09/11 14:27:30;;;;;;;4.15;1.95;;;23.80;99.90;;;;;;5013879;28;20399;-90
2022/09/11 14:30:32;;;;;;;7.57;2.00;;;23.80;99.90;;;;;;5015213;28;20431;-89
2022/09/11 14:33:16;;;;;;;3.42;1.80;;;;;;;;;;5015589;28;20091;-89
2022/09/11 14:36:04;;;;;;;4.28;1.88;;;24.00;99.10;;;;;;5015240;28;20041;-89
2022/09/11 14:38:49;;;;;;;3.90;1.52;;;24.20;99.70;;;;;;5016006;28;20096;-89
2022/09/11 14:41:33;;;;;;;3.58;1.95;;;;;;;;;;5001308;28;20160;-89
2022/09/11 14:44:20;;;;;;;2.97;1.50;;;;;;;;;;5015192;28;20044;-93
2022/09/11 14:47:05;;;;;;;3.53;1.70;;;23.50;99.20;;;;;;5012666;28;20036;-93
2022/09/11 14:49:52;;;;;;;3.80;1.42;;;23.20;99.90;;;;;;5012352;28;20398;-93
2022/09/11 14:52:39;;;;;;;31.95;4.40;;;23.00;99.90;;;;;;5008155;28;20516;-95
2022/09/11 14:55:24;;;;;;;3.58;1.42;;;;;;;;;;5012772;28;20425;-93
2022/09/11 14:58:09;;;;;;;4.72;1.70;;;;;;;;;;5013242;28;20104;-91
2022/09/11 15:00:54;;;;;;;4.47;1.58;;;;;;;;;;5009255;28;20149;-93
2022/09/11 15:03:38;;;;;;;4.00;1.60;;;;;;;;;;5015782;28;20041;-94
2022/09/11 15:06:24;;;;;;;3.03;1.58;;;;;;;;;;5011075;28;20406;-93
2022/09/11 15:09:09;;;;;;;4.68;1.50;;;;;;;;;;5001154;28;20447;-93
2022/09/11 15:11:53;;;;;;;3.63;1.50;;;21.70;99.90;;;;;;5001058;28;20072;-94
2022/09/11 15:14:38;;;;;;;3.20;1.38;;;;;;;;;;5009636;28;20413;-93
2022/09/11 15:17:30;;;;;;;4.57;1.80;;;21.80;99.90;;;;;;5015834;28;20040;-94